Naval Anacostia Annex, DC (20373)

7:56 AM EDT on July 27, 2016 (GMT -0400)
Capitol Hill | | Change Station

Elev 72 ft 38.88 °N, 76.99 °W | Updated 10 seconds ago

Scattered Clouds
Scattered Clouds
83.1 °F
Feels Like 87 °F
N
1.8
Wind Variable Wind from West
Gusts 2.5 mph

Today
High -- | Low -- °F
--% Chance of Precip.
Yesterday
High -- | Low -- °F
Precip. -- in
Pressure 29.96 in
Visibility 10.0 miles
Clouds Few 8000 ft
Scattered Clouds 14000 ft
Scattered Clouds 25000 ft
Heat Index 87 °F
Dew Point 69 °F
Humidity 63%
Rainfall 0.00 in
Snow Depth Not available.
6:05 AM 8:23 PM
Last Quarter, 44% visible
METAR KDCA 271152Z 35007KT 10SM FEW080 SCT140 SCT250 28/22 A2995 RMK AO2 SLP143 ACC S T02830222 10283 20272 51007
Pressure 29.96 in
Visibility 10.0 miles
Clouds Few 8000 ft
Scattered Clouds 14000 ft
Scattered Clouds 25000 ft
Heat Index 87 °F
Dew Point 69 °F
Humidity 63%
Rainfall 0.00 in
Snow Depth Not available.
6:05 AM 8:23 PM
Last Quarter, 44% visible
METAR KDCA 271152Z 35007KT 10SM FEW080 SCT140 SCT250 28/22 A2995 RMK AO2 SLP143 ACC S T02830222 10283 20272 51007

10-Day Weather Forecast

Almanac

Astronomy

Jul. 27, 2016 Rise Set
Actual Time
Civil Twilight
Nautical Twilight
Astronomical Twilight
Moon
Length of Visible Light
Length of Day
Tomorrow will be .
, % of the Moon is Illuminated

Today's Extremes

State Highs State Lows

Community

WunderPhotos

Upload Photos

1,927,828 photos uploaded!

WunderBlog® & News

Nearby

Air Quality

  Air Quality AQ Index Pollutant
Not available.

Snow Depth

Station Depth Elevation

Earthquake Activity

City Distance Mag. Time & Date
Minimum magnitude displayed is 2.5.

Coastal Water Temperatures

Place Temperature

Stations

Nearby Weather Stations

Station Location Temp. Windchill Dew Point Humidity Wind Precip. Elev Updated Type
                   

Watches & Warnings

There are currently no watches in effect.